createdAt,value
2023-01-19T00:01:16.100Z,50.10
2023-01-19T00:06:18.297Z,49.36
2023-01-19T00:11:19.905Z,49.56
2023-01-19T00:16:21.924Z,48.79
2023-01-19T00:21:23.477Z,48.51
2023-01-19T00:26:25.041Z,48.02
2023-01-19T00:31:26.588Z,47.75
2023-01-19T00:36:28.318Z,47.18
2023-01-19T00:41:29.775Z,47.26
2023-01-19T00:46:31.226Z,48.11
2023-01-19T00:51:32.695Z,47.88
2023-01-19T00:56:34.251Z,47.47
2023-01-19T01:01:45.002Z,47.57
2023-01-19T01:06:51.743Z,48.77
2023-01-19T01:11:53.341Z,49.05
2023-01-19T01:16:54.843Z,49.12
2023-01-19T01:21:56.403Z,48.53
2023-01-19T01:26:57.958Z,48.70
2023-01-19T01:31:59.502Z,49.68
2023-01-19T01:37:01.021Z,49.75
2023-01-19T01:42:03.706Z,49.38
2023-01-19T01:47:05.352Z,49.94
2023-01-19T01:52:07.310Z,50.57
2023-01-19T01:57:10.744Z,50.86
2023-01-19T02:02:23.215Z,50.40
2023-01-19T02:07:38.276Z,50.24
2023-01-19T02:12:39.857Z,50.68
2023-01-19T02:17:41.955Z,50.70
2023-01-19T02:22:49.563Z,49.79
2023-01-19T02:27:52.701Z,49.70
2023-01-19T02:32:54.281Z,50.38
2023-01-19T02:37:56.757Z,50.65
2023-01-19T02:42:59.854Z,49.87
2023-01-19T02:48:01.710Z,49.95
2023-01-19T02:53:21.259Z,50.58
2023-01-19T02:58:44.976Z,50.47
2023-01-19T03:03:53.757Z,50.31
2023-01-19T03:09:02.849Z,50.71
2023-01-19T03:14:14.100Z,51.21
2023-01-19T03:19:22.297Z,51.29
2023-01-19T03:24:26.960Z,51.78
2023-01-19T03:29:32.386Z,51.17
2023-01-19T03:34:35.013Z,50.79
2023-01-19T03:39:37.068Z,50.85
2023-01-19T03:44:41.095Z,51.16
2023-01-19T03:49:45.602Z,51.49
2023-01-19T03:54:47.136Z,51.21
2023-01-19T03:59:48.664Z,51.47
2023-01-19T04:04:50.530Z,50.89
2023-01-19T04:09:51.962Z,50.22
2023-01-19T04:14:53.416Z,50.18
2023-01-19T04:19:54.878Z,50.54
2023-01-19T04:24:56.331Z,50.95
2023-01-19T04:29:57.787Z,51.42
2023-01-19T04:34:59.643Z,51.32
2023-01-19T04:40:01.157Z,51.73
2023-01-19T04:45:02.692Z,51.49
2023-01-19T04:50:04.838Z,51.12
2023-01-19T04:55:07.059Z,51.19
2023-01-19T05:00:09.210Z,51.04
2023-01-19T05:05:11.533Z,49.97
2023-01-19T05:10:13.051Z,50.42
2023-01-19T05:15:14.635Z,50.30
2023-01-19T05:20:16.555Z,50.36
2023-01-19T05:25:18.595Z,49.81
2023-01-19T05:30:20.192Z,50.45
2023-01-19T05:35:31.354Z,49.97
2023-01-19T05:40:36.956Z,50.26
2023-01-19T05:45:38.535Z,50.29
2023-01-19T05:50:40.066Z,50.04
2023-01-19T05:55:41.640Z,49.50
2023-01-19T06:00:43.208Z,50.13
2023-01-19T06:05:44.688Z,49.97
2023-01-19T06:10:46.222Z,49.81
2023-01-19T06:15:47.741Z,49.72
2023-01-19T06:20:49.249Z,49.76
2023-01-19T06:25:50.752Z,49.50
2023-01-19T06:30:54.159Z,49.79
2023-01-19T06:35:56.226Z,49.39
2023-01-19T06:40:58.668Z,49.54
2023-01-19T06:46:00.706Z,48.51
2023-01-19T06:51:02.314Z,48.59
2023-01-19T06:56:04.524Z,48.67
2023-01-19T07:01:07.631Z,47.49
2023-01-19T07:06:09.414Z,47.24
2023-01-19T07:11:25.050Z,47.08
2023-01-19T07:16:32.003Z,47.09
2023-01-19T07:21:33.446Z,47.77
2023-01-19T07:26:34.974Z,48.01
2023-01-19T07:31:36.592Z,46.99
2023-01-19T07:36:38.230Z,47.57
2023-01-19T07:41:39.876Z,46.82
2023-01-19T07:46:41.816Z,46.62
2023-01-19T07:51:43.266Z,47.01
2023-01-19T07:56:44.768Z,47.30
2023-01-19T08:01:46.594Z,47.33
2023-01-19T08:06:48.142Z,47.98
2023-01-19T08:11:49.726Z,47.35
2023-01-19T08:16:51.441Z,48.48
2023-01-19T08:21:53.206Z,48.13
2023-01-19T08:26:59.750Z,47.95
2023-01-19T08:32:01.546Z,47.64
2023-01-19T08:37:03.202Z,47.06
2023-01-19T08:42:04.730Z,46.94
2023-01-19T08:47:06.332Z,46.92
2023-01-19T08:52:07.935Z,46.33
2023-01-19T08:57:09.478Z,46.73
2023-01-19T09:02:11.084Z,45.94
2023-01-19T09:07:12.705Z,45.51
2023-01-19T09:12:14.196Z,45.91
2023-01-19T09:17:15.632Z,45.46
2023-01-19T09:22:17.187Z,45.18
2023-01-19T09:27:18.654Z,44.73
2023-01-19T09:32:21.636Z,44.81
2023-01-19T09:37:23.122Z,44.19
2023-01-19T09:42:40.093Z,44.21
2023-01-19T09:47:42.373Z,44.13
2023-01-19T09:52:50.695Z,44.48
2023-01-19T09:57:53.200Z,44.37
2023-01-19T10:03:10.715Z,43.34
2023-01-19T10:08:46.174Z,43.46
2023-01-19T10:13:50.666Z,42.75
2023-01-19T10:18:56.517Z,41.79
2023-01-19T10:24:19.341Z,41.54
2023-01-19T10:29:35.575Z,41.13
2023-01-19T10:34:37.159Z,41.33
2023-01-19T10:39:40.715Z,40.25
2023-01-19T10:44:43.966Z,39.00
2023-01-19T10:49:46.899Z,37.96
2023-01-19T10:54:48.501Z,36.12
2023-01-19T10:59:50.606Z,33.94
2023-01-19T11:04:54.935Z,33.36
2023-01-19T11:10:13.719Z,33.35
2023-01-19T11:15:20.878Z,33.72
2023-01-19T11:20:26.000Z,34.36
2023-01-19T11:25:31.453Z,34.94
2023-01-19T11:30:35.305Z,35.67
2023-01-19T11:35:39.584Z,35.68
2023-01-19T11:40:46.906Z,35.88
2023-01-19T11:45:48.524Z,34.79
2023-01-19T11:50:53.373Z,35.17
2023-01-19T11:56:01.018Z,34.47
2023-01-19T12:01:30.050Z,33.16
2023-01-19T12:06:38.321Z,32.30
2023-01-19T12:11:48.807Z,31.83
2023-01-19T12:16:53.152Z,31.81
2023-01-19T12:21:55.717Z,31.69
2023-01-19T12:27:11.032Z,31.55
2023-01-19T12:32:15.546Z,32.15
2023-01-19T12:37:39.637Z,31.71
2023-01-19T12:42:46.890Z,30.54
2023-01-19T12:47:56.218Z,31.64
2023-01-19T12:53:01.562Z,32.47
2023-01-19T12:58:24.389Z,29.99
2023-01-19T13:03:25.771Z,29.40
2023-01-19T13:08:48.230Z,29.90
2023-01-19T13:13:49.632Z,30.24
2023-01-19T13:19:06.373Z,30.14
2023-01-19T13:24:20.014Z,29.36
2023-01-19T13:29:34.975Z,28.73
2023-01-19T13:34:43.663Z,27.94
2023-01-19T13:39:47.963Z,28.16
2023-01-19T13:44:53.394Z,28.70
2023-01-19T13:49:58.758Z,29.14
2023-01-19T13:55:03.808Z,30.04
2023-01-19T14:00:11.832Z,30.14
2023-01-19T14:05:15.021Z,30.11
2023-01-19T14:10:16.816Z,29.45
2023-01-19T14:15:18.401Z,29.49
2023-01-19T14:20:30.326Z,30.24
2023-01-19T14:25:36.549Z,30.78
2023-01-19T14:30:38.084Z,29.92
2023-01-19T14:35:39.545Z,30.92
2023-01-19T14:40:41.162Z,30.75
2023-01-19T14:45:47.432Z,31.24
2023-01-19T14:51:02.308Z,31.22
2023-01-19T14:56:05.958Z,31.31
2023-01-19T15:01:07.575Z,32.55
2023-01-19T15:06:22.684Z,32.85
2023-01-19T15:11:29.748Z,33.46
2023-01-19T15:16:33.863Z,33.64
2023-01-19T15:21:35.445Z,34.86
2023-01-19T15:26:41.854Z,34.59
2023-01-19T15:31:43.469Z,33.87
2023-01-19T15:36:45.146Z,34.58
2023-01-19T15:41:46.686Z,35.20
2023-01-19T15:46:48.184Z,35.71
2023-01-19T15:51:49.756Z,36.42
2023-01-19T15:56:51.279Z,36.61
2023-01-19T16:01:52.976Z,37.51
2023-01-19T16:06:54.651Z,37.06
2023-01-19T16:11:56.229Z,38.20
2023-01-19T16:16:57.673Z,39.84
2023-01-19T16:22:06.679Z,40.83
2023-01-19T16:27:08.224Z,41.95
2023-01-19T16:32:09.717Z,42.07
2023-01-19T16:37:11.784Z,43.24
2023-01-19T16:42:13.235Z,43.33
2023-01-19T16:47:14.842Z,43.96
2023-01-19T16:52:16.330Z,43.91
2023-01-19T16:57:17.779Z,44.45
2023-01-19T17:02:19.370Z,44.74
2023-01-19T17:07:20.889Z,43.97
2023-01-19T17:12:22.462Z,43.33
2023-01-19T17:17:24.021Z,43.42
2023-01-19T17:22:25.564Z,41.41
2023-01-19T17:27:27.025Z,41.11
2023-01-19T17:32:29.729Z,41.08
2023-01-19T17:37:31.322Z,41.20
2023-01-19T17:42:32.757Z,40.87
2023-01-19T17:47:34.279Z,41.20
2023-01-19T17:52:35.847Z,41.35
2023-01-19T17:57:37.374Z,40.96
2023-01-19T18:02:39.032Z,40.91
2023-01-19T18:07:40.528Z,40.92
2023-01-19T18:12:42.130Z,41.19
2023-01-19T18:17:43.771Z,41.21
2023-01-19T18:22:45.274Z,41.33
2023-01-19T18:27:46.716Z,41.24
2023-01-19T18:32:48.347Z,41.10
2023-01-19T18:37:49.793Z,41.77
2023-01-19T18:42:51.224Z,41.85
2023-01-19T18:47:52.705Z,40.85
2023-01-19T18:52:54.491Z,40.42
2023-01-19T18:57:55.994Z,40.15
2023-01-19T19:02:57.990Z,40.59
2023-01-19T19:07:59.496Z,40.38
2023-01-19T19:13:01.150Z,40.12
2023-01-19T19:18:02.657Z,40.24
2023-01-19T19:23:04.218Z,40.50
2023-01-19T19:28:05.698Z,40.77
2023-01-19T19:33:07.151Z,41.19
2023-01-19T19:38:08.577Z,41.10
2023-01-19T19:43:10.024Z,41.08
2023-01-19T19:48:11.530Z,40.84
2023-01-19T19:53:13.032Z,40.61
2023-01-19T19:58:14.539Z,41.29
2023-01-19T20:03:15.994Z,40.03
2023-01-19T20:08:17.431Z,41.21
2023-01-19T20:13:18.924Z,41.53
2023-01-19T20:18:20.432Z,42.60
2023-01-19T20:23:21.889Z,42.98
2023-01-19T20:28:23.410Z,42.44
2023-01-19T20:33:24.941Z,43.00
2023-01-19T20:38:26.387Z,42.75
2023-01-19T20:43:28.987Z,43.04
2023-01-19T20:48:30.924Z,43.33
2023-01-19T20:53:33.313Z,43.52
2023-01-19T20:58:34.845Z,43.46
2023-01-19T21:03:36.388Z,42.60
2023-01-19T21:08:37.992Z,43.31
2023-01-19T21:13:39.630Z,42.73
2023-01-19T21:18:41.270Z,42.56
2023-01-19T21:23:42.839Z,42.20
2023-01-19T21:28:44.297Z,42.73
2023-01-19T21:33:45.808Z,42.69
2023-01-19T21:38:47.345Z,42.07
2023-01-19T21:43:48.860Z,42.04
2023-01-19T21:48:50.348Z,41.68
2023-01-19T21:53:51.887Z,41.67
2023-01-19T21:58:54.448Z,42.24
2023-01-19T22:03:57.449Z,42.01
2023-01-19T22:08:59.013Z,41.95
2023-01-19T22:14:00.587Z,41.73
2023-01-19T22:19:02.132Z,41.34
2023-01-19T22:24:05.429Z,41.48
2023-01-19T22:29:07.285Z,40.85
2023-01-19T22:34:09.171Z,40.73
2023-01-19T22:39:11.992Z,40.55
2023-01-19T22:44:15.772Z,40.53
2023-01-19T22:49:18.196Z,41.84
2023-01-19T22:54:19.787Z,42.02
2023-01-19T22:59:21.333Z,42.26
2023-01-19T23:04:22.786Z,42.22
2023-01-19T23:09:24.307Z,41.69
2023-01-19T23:14:26.283Z,41.95
2023-01-19T23:19:27.745Z,42.05
2023-01-19T23:24:29.214Z,42.37
2023-01-19T23:29:30.665Z,42.77
2023-01-19T23:34:32.110Z,41.98
2023-01-19T23:39:33.663Z,41.58
2023-01-19T23:44:35.114Z,41.02
2023-01-19T23:49:36.612Z,41.07
2023-01-19T23:54:38.060Z,40.96
2023-01-19T23:59:39.556Z,42.15
